74PN weather

Altoona Regional Hospital Heliport
Altoona, Pennsylvania, United States

Public forecast

Using degrees Fahrenheit for public forecast. Weather courtesy of forecast.io.

METAR (pilot weather report)

Closest report is Altoona Blair County Airport, 14.0 nm (26.0 km) SSE. Retrieved 2019/05/25 06:53 UTC (26 minutes ago):

KAOO 250653Z AUTO 00000KT 10SM BKN055 OVC070 17/12 A3015 RMK AO2 SLP202 T01670122

TAF (pilot weather forecast)

Closest forecast is Altoona Blair County Airport, 14.0 nm (26.0 km) SSE. Retrieved 2019/05/25 06:03 UTC (1 hour ago):

TAF KAOO 250600Z 2506/2606 00000KT P6SM SCT060 SCT090 OVC110 FM251500 17006KT P6SM OVC050 FM252000 24008G14KT P6SM -SHRA SCT040 BKN250 FM260200 22008KT P6SM BKN040